createdAt,value
2018-01-05T00:01:08.679Z,90.19
2018-01-05T00:03:37.463Z,90.22
2018-01-05T00:06:15.072Z,90.36
2018-01-05T00:08:44.457Z,90.48
2018-01-05T00:11:13.353Z,91.09
2018-01-05T00:13:41.851Z,91.76
2018-01-05T00:16:10.561Z,91.75
2018-01-05T00:18:40.275Z,92.08
2018-01-05T00:21:10.105Z,92.78
2018-01-05T00:23:38.925Z,92.88
2018-01-05T00:26:07.660Z,92.96
2018-01-05T00:28:36.344Z,93.08
2018-01-05T00:31:05.588Z,92.71
2018-01-05T00:33:34.151Z,93.00
2018-01-05T00:36:03.816Z,93.00
2018-01-05T00:38:32.661Z,93.09
2018-01-05T00:41:01.353Z,92.88
2018-01-05T00:43:30.037Z,93.09
2018-01-05T00:45:59.128Z,92.62
2018-01-05T00:48:28.200Z,92.34
2018-01-05T00:50:56.897Z,92.16
2018-01-05T00:53:25.516Z,92.14
2018-01-05T00:55:54.015Z,92.11
2018-01-05T00:58:22.591Z,91.74
2018-01-05T01:00:51.277Z,91.91
2018-01-05T01:03:20.185Z,91.72
2018-01-05T01:05:49.350Z,91.69
2018-01-05T01:08:18.042Z,91.87
2018-01-05T01:10:46.742Z,91.57
2018-01-05T01:13:15.425Z,91.16
2018-01-05T01:15:43.972Z,90.94
2018-01-05T01:18:12.895Z,90.36
2018-01-05T01:20:42.513Z,90.29
2018-01-05T01:23:11.197Z,90.29
2018-01-05T01:25:39.957Z,90.31
2018-01-05T01:28:08.579Z,89.32
2018-01-05T01:30:37.307Z,89.36
2018-01-05T01:33:05.959Z,89.91
2018-01-05T01:35:34.718Z,89.69
2018-01-05T01:38:03.277Z,89.73
2018-01-05T01:40:31.829Z,89.77
2018-01-05T01:43:00.397Z,89.22
2018-01-05T01:45:29.068Z,88.80
2018-01-05T01:47:57.624Z,89.27
2018-01-05T01:50:26.218Z,89.37
2018-01-05T01:52:55.065Z,89.16
2018-01-05T01:55:23.859Z,89.05
2018-01-05T01:57:52.605Z,88.96
2018-01-05T02:00:22.157Z,88.39
2018-01-05T02:02:50.970Z,87.87
2018-01-05T02:05:19.495Z,88.12
2018-01-05T02:07:49.133Z,89.62
2018-01-05T02:10:17.800Z,89.97
2018-01-05T02:12:46.466Z,90.31
2018-01-05T02:15:15.398Z,89.46
2018-01-05T02:17:44.037Z,89.54
2018-01-05T02:20:12.650Z,89.31
2018-01-05T02:22:41.271Z,87.94
2018-01-05T02:25:10.153Z,87.35
2018-01-05T02:27:39.192Z,87.12
2018-01-05T02:30:07.962Z,86.11
2018-01-05T02:32:36.613Z,85.28
2018-01-05T02:35:05.292Z,84.60
2018-01-05T02:37:33.886Z,85.27
2018-01-05T02:40:02.486Z,84.26
2018-01-05T02:42:31.280Z,84.18
2018-01-05T02:45:00.024Z,83.99
2018-01-05T02:47:28.920Z,83.86
2018-01-05T02:49:57.772Z,83.96
2018-01-05T02:52:27.551Z,82.58
2018-01-05T02:54:56.391Z,83.50
2018-01-05T02:57:24.957Z,80.44
2018-01-05T02:59:53.614Z,78.87
2018-01-05T03:02:22.139Z,79.39
2018-01-05T03:04:50.853Z,78.24
2018-01-05T03:07:19.664Z,77.81
2018-01-05T03:09:51.381Z,78.17
2018-01-05T03:12:20.285Z,77.95
2018-01-05T03:14:48.946Z,76.31
2018-01-05T03:17:17.681Z,76.05
2018-01-05T03:19:46.709Z,75.98
2018-01-05T03:22:15.456Z,73.88
2018-01-05T03:24:44.077Z,74.31
2018-01-05T03:27:12.828Z,73.12
2018-01-05T03:29:41.493Z,71.91
2018-01-05T03:32:10.152Z,71.58
2018-01-05T03:34:38.681Z,68.86
2018-01-05T03:37:07.183Z,69.25
2018-01-05T03:39:35.776Z,68.64
2018-01-05T03:42:04.307Z,68.71
2018-01-05T03:44:33.157Z,67.64
2018-01-05T03:47:01.688Z,69.25
2018-01-05T03:49:30.224Z,68.41
2018-01-05T03:51:59.069Z,68.79
2018-01-05T03:54:27.528Z,69.31
2018-01-05T03:56:56.371Z,69.79
2018-01-05T03:59:24.927Z,67.98
2018-01-05T04:01:53.557Z,69.04
2018-01-05T04:04:22.237Z,68.38
2018-01-05T04:06:53.608Z,66.39
2018-01-05T04:09:22.637Z,65.27
2018-01-05T04:11:51.244Z,65.40
2018-01-05T04:14:19.865Z,65.13
2018-01-05T04:16:48.587Z,64.46
2018-01-05T04:19:17.141Z,63.65
2018-01-05T04:21:45.947Z,63.85
2018-01-05T04:24:14.781Z,63.57
2018-01-05T04:26:43.544Z,64.15
2018-01-05T04:29:12.165Z,64.44
2018-01-05T04:31:40.753Z,64.17
2018-01-05T04:34:09.331Z,63.60
2018-01-05T04:36:38.013Z,63.54
2018-01-05T04:39:06.833Z,63.75
2018-01-05T04:41:35.359Z,64.46
2018-01-05T04:44:03.918Z,64.98
2018-01-05T04:46:32.645Z,65.01
2018-01-05T04:49:01.205Z,64.90
2018-01-05T04:51:29.964Z,65.79
2018-01-05T04:53:59.470Z,66.17
2018-01-05T04:56:28.157Z,66.55
2018-01-05T04:58:56.804Z,66.50
2018-01-05T05:04:20.918Z,66.20
2018-01-05T05:06:49.675Z,66.81
2018-01-05T05:09:18.853Z,66.47
2018-01-05T05:11:51.086Z,66.92
2018-01-05T05:14:20.511Z,67.60
2018-01-05T05:16:49.303Z,67.50
2018-01-05T05:19:18.325Z,68.28
2018-01-05T05:21:47.165Z,67.79
2018-01-05T05:24:15.644Z,67.28
2018-01-05T05:26:44.351Z,67.96
2018-01-05T05:29:12.897Z,67.89
2018-01-05T05:31:41.739Z,67.54
2018-01-05T05:34:10.597Z,67.82
2018-01-05T05:36:39.228Z,68.60
2018-01-05T05:39:07.945Z,67.95
2018-01-05T05:41:36.897Z,68.24
2018-01-05T05:44:05.640Z,67.95
2018-01-05T05:46:34.688Z,67.50
2018-01-05T05:49:03.509Z,67.84
2018-01-05T05:51:32.429Z,67.95
2018-01-05T05:54:02.093Z,67.74
2018-01-05T05:56:34.853Z,67.85
2018-01-05T05:59:03.638Z,68.18
2018-01-05T06:01:32.322Z,67.68
2018-01-05T06:04:01.075Z,68.39
2018-01-05T06:06:30.021Z,68.52
2018-01-05T06:08:59.186Z,68.47
2018-01-05T06:11:34.163Z,69.14
2018-01-05T06:14:04.119Z,69.78
2018-01-05T06:16:32.808Z,69.68
2018-01-05T06:19:01.708Z,69.49
2018-01-05T06:21:30.310Z,69.68
2018-01-05T06:24:02.745Z,70.31
2018-01-05T06:26:32.675Z,70.65
2018-01-05T06:29:02.493Z,71.24
2018-01-05T06:31:31.109Z,71.40
2018-01-05T06:33:59.761Z,71.56
2018-01-05T06:36:29.001Z,71.42
2018-01-05T06:38:58.122Z,71.87
2018-01-05T06:41:26.647Z,72.08
2018-01-05T06:43:55.402Z,72.23
2018-01-05T06:46:24.344Z,73.40
2018-01-05T06:48:53.910Z,72.83
2018-01-05T06:51:22.620Z,73.15
2018-01-05T06:53:51.172Z,72.64
2018-01-05T06:56:20.187Z,72.21
2018-01-05T06:58:48.833Z,72.63
2018-01-05T07:01:17.978Z,72.30
2018-01-05T07:03:46.664Z,72.32
2018-01-05T07:06:15.504Z,72.21
2018-01-05T07:08:44.241Z,72.24
2018-01-05T07:11:12.889Z,71.71
2018-01-05T07:13:41.392Z,72.12
2018-01-05T07:16:09.970Z,72.19
2018-01-05T07:18:38.475Z,71.76
2018-01-05T07:21:07.298Z,72.15
2018-01-05T07:23:35.901Z,72.63
2018-01-05T07:26:04.743Z,72.48
2018-01-05T07:28:33.367Z,71.93
2018-01-05T07:31:02.072Z,71.66
2018-01-05T07:33:30.733Z,71.94
2018-01-05T07:35:59.334Z,71.55
2018-01-05T07:38:28.336Z,71.21
2018-01-05T07:40:57.049Z,71.95
2018-01-05T07:43:25.632Z,71.79
2018-01-05T07:45:55.634Z,71.21
2018-01-05T07:48:24.997Z,70.82
2018-01-05T07:50:53.794Z,70.29
2018-01-05T07:53:22.391Z,70.68
2018-01-05T07:55:51.277Z,69.96
2018-01-05T07:58:26.471Z,70.06
2018-01-05T08:00:58.209Z,69.32
2018-01-05T08:03:36.128Z,69.49
2018-01-05T08:06:04.764Z,69.30
2018-01-05T08:08:33.360Z,69.14
2018-01-05T08:11:02.058Z,69.43
2018-01-05T08:13:30.990Z,68.71
2018-01-05T08:15:59.776Z,69.13
2018-01-05T08:18:28.666Z,69.27
2018-01-05T08:20:57.209Z,69.27
2018-01-05T08:23:25.774Z,69.15
2018-01-05T08:25:54.311Z,69.25
2018-01-05T08:28:25.431Z,68.91
2018-01-05T08:30:54.852Z,68.89
2018-01-05T08:33:24.099Z,68.64
2018-01-05T08:35:52.793Z,68.79
2018-01-05T08:38:21.501Z,68.63
2018-01-05T08:40:50.144Z,68.31
2018-01-05T08:43:19.191Z,68.22
2018-01-05T08:45:47.844Z,67.51
2018-01-05T08:48:16.457Z,67.55
2018-01-05T08:50:45.321Z,67.32
2018-01-05T08:53:13.953Z,68.31
2018-01-05T08:55:42.832Z,68.39
2018-01-05T08:58:11.756Z,68.00
2018-01-05T09:00:41.451Z,68.11
2018-01-05T09:03:10.350Z,68.61
2018-01-05T09:05:39.675Z,68.33
2018-01-05T09:08:08.389Z,68.79
2018-01-05T09:10:37.242Z,68.76
2018-01-05T09:13:06.086Z,68.14
2018-01-05T09:15:35.260Z,68.40
2018-01-05T09:18:04.313Z,67.43
2018-01-05T09:20:33.470Z,67.50
2018-01-05T09:23:02.946Z,67.78
2018-01-05T09:25:31.644Z,68.24
2018-01-05T09:28:00.737Z,67.76
2018-01-05T09:30:29.565Z,68.30
2018-01-05T09:32:58.412Z,67.81
2018-01-05T09:35:27.160Z,67.39
2018-01-05T09:37:55.746Z,67.24
2018-01-05T09:40:24.352Z,67.13
2018-01-05T09:42:53.029Z,66.95
2018-01-05T09:45:21.868Z,66.42
2018-01-05T09:47:50.743Z,67.20
2018-01-05T09:50:19.300Z,67.25
